Time;durP1;ratioP1;P1;durP2;ratioP2;P2;SDS_P1;SDS_P2;PMS_P1;PMS_P2;Temp;Humidity;BMP_temperature;BMP_pressure;BME280_temperature;BME280_humidity;BME280_pressure;Samples;Min_cycle;Max_cycle;Signal;HPM_P1;HPM_P2
2022/09/10 00:02:12;;;;;;;6.95;4.05;;;;;;;21.23;64.96;100640.94;6215633;23;20020;-76
2022/09/10 00:04:38;;;;;;;10.43;3.78;;;;;;;21.10;64.63;100627.91;6216469;23;20094;-76
2022/09/10 00:07:05;;;;;;;10.57;4.35;;;;;;;21.18;64.72;100641.19;6216634;23;20028;-75
2022/09/10 00:09:32;;;;;;;9.35;3.35;;;;;;;20.98;65.01;100608.81;6214681;23;20067;-76
2022/09/10 00:11:59;;;;;;;8.00;4.25;;;;;;;21.02;64.83;100624.78;6215810;23;20035;-76
2022/09/10 00:14:26;;;;;;;10.82;4.03;;;;;;;21.11;64.76;100636.06;6216053;23;20016;-76
2022/09/10 00:16:54;;;;;;;9.88;3.78;;;;;;;20.95;64.73;100610.34;6216262;23;20024;-76
2022/09/10 00:19:21;;;;;;;11.70;3.72;;;;;;;21.00;64.77;100620.66;6215731;23;20021;-76
2022/09/10 00:21:49;;;;;;;11.07;4.70;;;;;;;21.01;64.79;100628.81;6216788;23;20024;-76
2022/09/10 00:24:16;;;;;;;7.43;4.30;;;;;;;20.86;64.93;100609.59;6216455;23;20020;-76
2022/09/10 00:26:44;;;;;;;10.93;3.40;;;;;;;20.94;64.77;100620.03;6214112;23;20515;-77
2022/09/10 00:29:14;;;;;;;9.30;4.00;;;;;;;20.95;65.07;100618.03;6214721;23;20080;-77
2022/09/10 00:31:42;;;;;;;5.57;3.30;;;;;;;20.94;64.92;100622.88;6215687;23;20021;-77
2022/09/10 00:34:11;;;;;;;7.50;3.63;;;;;;;20.73;65.25;100593.69;6216544;23;20056;-77
2022/09/10 00:36:40;;;;;;;12.23;4.63;;;;;;;20.91;65.22;100612.22;6215307;23;20031;-77
2022/09/10 00:39:13;;;;;;;9.23;4.10;;;;;;;20.85;65.28;100599.41;6214339;23;20056;-77
2022/09/10 00:41:43;;;;;;;9.88;3.90;;;;;;;20.83;65.71;100593.28;6216140;23;20024;-76
2022/09/10 00:44:38;;;;;;;13.70;4.53;;;;;;;20.96;65.21;100603.50;6214867;23;20028;-76
2022/09/10 00:47:21;;;;;;;9.80;4.15;;;;;;;20.84;65.29;100575.06;6214097;23;20013;-76
2022/09/10 00:49:54;;;;;;;13.18;5.43;;;;;;;20.91;65.67;100586.66;6215568;23;20071;-76
2022/09/10 00:52:21;;;;;;;10.20;4.45;;;;;;;20.90;65.67;100582.19;6216646;23;20042;-76
2022/09/10 00:54:48;;;;;;;9.32;4.95;;;;;;;20.73;65.74;100565.31;6215615;23;20024;-76
2022/09/10 00:57:23;;;;;;;11.00;4.38;;;;;;;20.96;65.70;100608.34;6214274;23;20044;-77
2022/09/10 00:59:54;;;;;;;8.25;4.30;;;;;;;20.94;65.74;100591.66;6215158;23;20025;-77
2022/09/10 01:02:21;;;;;;;6.68;3.63;;;;;;;20.84;65.69;100589.25;6213744;23;20020;-76
2022/09/10 01:04:49;;;;;;;11.60;5.00;;;;;;;20.78;65.67;100568.75;6215759;23;20021;-77
2022/09/10 01:07:17;;;;;;;10.93;4.15;;;;;;;20.85;65.61;100582.38;6216310;23;20028;-77
2022/09/10 01:09:44;;;;;;;19.85;5.38;;;;;;;20.80;65.57;100580.59;6213949;23;20031;-77
2022/09/10 01:12:21;;;;;;;15.60;4.93;;;;;;;20.89;65.90;100586.22;6216651;23;20028;-77
2022/09/10 01:15:29;;;;;;;11.02;4.25;;;;;;;20.85;65.92;100590.91;6217768;23;20021;-76
2022/09/10 01:18:20;;;;;;;11.73;4.40;;;;;;;20.79;65.92;100580.97;6200924;23;20024;-77
2022/09/10 01:21:07;;;;;;;15.80;4.60;;;;;;;20.73;65.96;100571.00;6215592;23;20047;-76
2022/09/10 01:23:52;;;;;;;12.52;4.80;;;;;;;20.85;66.18;100581.56;6216019;23;20016;-77
2022/09/10 01:26:35;;;;;;;14.77;4.60;;;;;;;20.81;66.38;100573.75;6215830;23;20025;-76
2022/09/10 01:29:04;;;;;;;19.33;5.53;;;;;;;20.81;66.47;100581.44;6216313;23;20028;-76
2022/09/10 01:32:05;;;;;;;13.20;4.68;;;;;;;20.71;66.28;100562.00;6215874;23;20443;-76
2022/09/10 01:34:41;;;;;;;15.43;5.75;;;;;;;20.79;66.26;100569.63;6215215;23;20025;-77
2022/09/10 01:37:17;;;;;;;13.60;4.85;;;;;;;20.53;66.17;100524.47;6216444;23;20020;-77
2022/09/10 01:39:46;;;;;;;10.80;4.82;;;;;;;20.77;66.57;100572.78;6215699;23;20021;-77
2022/09/10 01:42:14;;;;;;;11.38;4.88;;;;;;;20.76;66.44;100573.97;6215952;23;20021;-77
2022/09/10 01:44:46;;;;;;;13.77;5.75;;;;;;;20.65;66.61;100532.16;6215610;23;20348;-77
2022/09/10 01:47:34;;;;;;;12.18;5.13;;;;;;;20.59;66.48;100531.56;6215780;23;20027;-75
2022/09/10 01:50:37;;;;;;;16.33;5.10;;;;;;;20.62;66.25;100542.22;6155991;23;20021;-76
2022/09/10 01:53:50;;;;;;;10.65;5.22;;;;;;;20.67;66.44;100549.69;6214251;23;20024;-77
2022/09/10 01:56:47;;;;;;;18.13;5.60;;;;;;;20.48;66.48;100518.97;6210331;23;20039;-77
2022/09/10 01:59:33;;;;;;;12.50;4.78;;;;;;;20.69;66.79;100558.69;6159566;23;20021;-77
2022/09/10 02:02:08;;;;;;;15.00;4.57;;;;;;;20.67;66.74;100550.50;6214890;23;20032;-75
2022/09/10 02:04:36;;;;;;;12.10;4.97;;;;;;;20.46;66.88;100522.16;6214068;23;20024;-75
2022/09/10 02:07:05;;;;;;;18.02;5.70;;;;;;;20.61;66.83;100551.06;6215067;23;20024;-76
2022/09/10 02:09:32;;;;;;;9.00;4.63;;;;;;;20.44;66.71;100535.84;6214986;23;20463;-76
2022/09/10 02:12:01;;;;;;;9.70;4.40;;;;;;;20.40;66.77;100534.06;6213397;23;20025;-76
2022/09/10 02:14:27;;;;;;;11.20;4.47;;;;;;;20.43;66.77;100530.53;6213854;23;20021;-76
2022/09/10 02:16:59;;;;;;;7.53;4.25;;;;;;;20.34;66.76;100507.91;6214876;23;20020;-76
2022/09/10 02:19:27;;;;;;;12.80;5.72;;;;;;;20.28;66.75;100509.31;6215837;23;20043;-76
2022/09/10 02:21:56;;;;;;;13.68;4.47;;;;;;;20.48;66.63;100542.50;6215392;23;20028;-76
2022/09/10 02:24:23;;;;;;;11.50;4.70;;;;;;;20.46;66.64;100542.00;6215266;23;20028;-76
2022/09/10 02:26:50;;;;;;;14.43;5.03;;;;;;;20.33;66.71;100526.09;6214939;23;20024;-76
2022/09/10 02:29:18;;;;;;;12.65;5.30;;;;;;;20.44;66.80;100552.84;6215265;23;20351;-76
2022/09/10 02:31:46;;;;;;;12.73;5.75;;;;;;;20.45;66.70;100540.34;6215461;23;20377;-76
2022/09/10 02:34:14;;;;;;;19.88;6.18;;;;;;;20.34;66.75;100522.94;6214551;23;20031;-76
2022/09/10 02:36:42;;;;;;;11.90;5.35;;;;;;;20.25;66.82;100516.50;6213429;23;20024;-76
2022/09/10 02:39:09;;;;;;;13.30;7.00;;;;;;;20.28;66.74;100518.66;6214774;23;20032;-77
2022/09/10 02:41:39;;;;;;;10.07;5.00;;;;;;;20.33;67.00;100512.75;6215009;23;20348;-77
2022/09/10 02:44:07;;;;;;;13.15;4.93;;;;;;;20.13;66.91;100480.41;6214883;23;20021;-77
2022/09/10 02:46:34;;;;;;;12.23;4.97;;;;;;;20.20;67.02;100490.34;6213482;23;20068;-77
2022/09/10 02:49:01;;;;;;;13.05;5.28;;;;;;;20.09;67.26;100468.09;6214218;23;20024;-77
2022/09/10 02:51:29;;;;;;;10.25;4.80;;;;;;;20.31;67.37;100491.63;6212983;23;20035;-77
2022/09/10 02:53:55;;;;;;;10.35;5.07;;;;;;;20.21;67.25;100475.84;6213251;23;20032;-77
2022/09/10 02:56:22;;;;;;;7.90;3.95;;;;;;;20.11;66.91;100454.41;6213482;23;20025;-77
2022/09/10 02:58:49;;;;;;;7.50;4.15;;;;;;;20.28;67.16;100461.94;6215088;23;20036;-77
2022/09/10 03:01:19;;;;;;;8.23;3.38;;;;;;;20.08;67.43;100438.09;6215895;23;20020;-77
2022/09/10 03:03:53;;;;;;;8.88;3.78;;;;;;;20.48;67.31;100485.78;6213784;23;20347;-77
2022/09/10 03:06:22;;;;;;;7.50;3.35;;;;;;;19.79;67.37;100367.34;6215087;23;20028;-76
2022/09/10 03:08:50;;;;;;;8.35;3.92;;;;;;;20.45;67.31;100475.13;6214745;23;20020;-76
2022/09/10 03:11:17;;;;;;;9.15;3.65;;;;;;;20.24;67.25;100434.59;6213119;23;20486;-76
2022/09/10 03:13:45;;;;;;;8.73;3.22;;;;;;;20.51;67.29;100476.59;6213537;23;20794;-76
2022/09/10 03:16:12;;;;;;;8.05;3.55;;;;;;;20.31;67.18;100441.38;6213684;23;20048;-76
2022/09/10 03:18:40;;;;;;;7.72;3.17;;;;;;;20.46;67.13;100456.09;6213815;23;20048;-77
2022/09/10 03:21:17;;;;;;;10.75;4.05;;;;;;;20.49;66.95;100461.06;6215028;23;20027;-77
2022/09/10 03:23:45;;;;;;;6.05;3.17;;;;;;;20.53;67.14;100477.06;6214936;23;20021;-77
2022/09/10 03:26:16;;;;;;;7.40;3.90;;;;;;;20.54;66.70;100477.88;6213383;23;20032;-77
2022/09/10 03:28:44;;;;;;;8.05;3.17;;;;;;;20.34;66.46;100463.38;6214578;23;20027;-77
2022/09/10 03:31:12;;;;;;;6.80;4.30;;;;;;;20.27;66.37;100463.13;6213348;23;20017;-76
2022/09/10 03:33:39;;;;;;;6.90;3.55;;;;;;;20.31;66.48;100480.28;6214722;23;20454;-77
2022/09/10 03:36:08;;;;;;;6.18;3.50;;;;;;;20.13;66.25;100465.41;6212211;23;20478;-77
2022/09/10 03:38:35;;;;;;;7.45;4.53;;;;;;;20.15;66.38;100496.25;6214729;23;20016;-76
2022/09/10 03:41:02;;;;;;;6.63;3.50;;;;;;;19.91;66.51;100471.44;6211388;23;20071;-76
2022/09/10 03:43:29;;;;;;;7.40;3.42;;;;;;;20.05;66.37;100503.16;6213735;23;20024;-75
2022/09/10 03:45:56;;;;;;;9.43;3.85;;;;;;;19.99;66.31;100499.69;6214970;23;20021;-76
2022/09/10 03:48:23;;;;;;;6.55;3.95;;;;;;;19.75;66.45;100466.38;6214634;23;20025;-76
2022/09/10 03:50:50;;;;;;;9.23;3.60;;;;;;;19.75;66.71;100474.88;6214103;23;20497;-76
2022/09/10 03:53:18;;;;;;;6.22;3.65;;;;;;;19.83;66.63;100487.34;6212826;23;20028;-76
2022/09/10 03:55:47;;;;;;;7.53;3.83;;;;;;;19.62;66.69;100464.59;6212969;23;20025;-76
2022/09/10 03:58:15;;;;;;;7.57;4.43;;;;;;;19.57;66.67;100462.00;6214612;23;20044;-76
2022/09/10 04:00:42;;;;;;;7.95;3.92;;;;;;;19.69;66.82;100481.91;6213622;23;20021;-76
2022/09/10 04:03:13;;;;;;;8.80;3.63;;;;;;;19.46;66.62;100455.91;6213228;23;20025;-76
2022/09/10 04:05:44;;;;;;;8.35;4.35;;;;;;;19.61;66.86;100479.94;6212415;23;20031;-76
2022/09/10 04:08:12;;;;;;;7.35;3.88;;;;;;;19.41;66.58;100448.41;6215027;23;20025;-76
2022/09/10 04:10:40;;;;;;;6.85;3.47;;;;;;;19.49;66.77;100454.38;6214954;23;20024;-76
2022/09/10 04:13:08;;;;;;;4.88;3.67;;;;;;;19.54;66.66;100474.81;6213090;23;20017;-76
2022/09/10 04:15:36;;;;;;;6.70;3.40;;;;;;;19.52;66.74;100482.84;6214182;23;20028;-76
2022/09/10 04:18:04;;;;;;;9.20;3.63;;;;;;;19.41;66.36;100456.09;6212742;23;20020;-76
2022/09/10 04:20:33;;;;;;;4.97;3.03;;;;;;;19.50;66.47;100473.84;6213311;23;20021;-76
2022/09/10 04:23:00;;;;;;;9.07;3.28;;;;;;;19.36;66.49;100459.13;6212975;23;20047;-76
2022/09/10 04:25:27;;;;;;;5.40;3.35;;;;;;;19.32;66.43;100463.81;6213287;23;20025;-76
2022/09/10 04:27:54;;;;;;;9.32;3.38;;;;;;;19.34;66.46;100469.94;6212776;23;20020;-76
2022/09/10 04:30:21;;;;;;;7.75;3.85;;;;;;;19.20;66.53;100450.38;6214424;23;20024;-76
2022/09/10 04:32:49;;;;;;;6.88;3.25;;;;;;;19.24;66.43;100468.34;6214057;23;20032;-76
2022/09/10 04:35:16;;;;;;;7.78;3.05;;;;;;;19.30;66.62;100471.81;6214224;23;20027;-76
2022/09/10 04:37:43;;;;;;;6.30;3.50;;;;;;;19.45;66.57;100493.88;6213782;23;20021;-76
2022/09/10 04:40:10;;;;;;;5.68;2.95;;;;;;;19.35;66.33;100472.47;6213067;23;20021;-76
2022/09/10 04:42:37;;;;;;;5.22;3.08;;;;;;;19.37;66.43;100474.94;6212905;23;20017;-76
2022/09/10 04:45:05;;;;;;;6.95;3.63;;;;;;;19.44;66.46;100492.22;6213270;23;20032;-76
2022/09/10 04:47:33;;;;;;;10.20;4.05;;;;;;;19.38;66.57;100477.44;6215625;23;20459;-76
2022/09/10 04:50:00;;;;;;;6.68;3.80;;;;;;;19.35;66.73;100468.78;6217368;23;20025;-76
2022/09/10 04:52:27;;;;;;;6.53;3.85;;;;;;;19.42;66.85;100483.25;6216339;23;20016;-77
2022/09/10 04:54:54;;;;;;;5.78;3.05;;;;;;;19.35;66.50;100471.59;6218182;23;20056;-76
2022/09/10 04:57:22;;;;;;;4.80;3.60;;;;;;;19.29;66.92;100464.50;6218311;23;20033;-77
2022/09/10 04:59:49;;;;;;;13.45;4.68;;;;;;;19.17;66.71;100449.06;6218970;23;20024;-77
2022/09/10 05:02:16;;;;;;;7.90;3.47;;;;;;;19.10;66.80;100428.13;6223658;23;20218;-77
2022/09/10 05:04:43;;;;;;;10.98;4.68;;;;;;;19.08;66.83;100455.94;6231457;23;20074;-79
2022/09/10 05:07:10;;;;;;;10.32;4.65;;;;;;;19.42;67.20;100494.56;6227777;23;20072;-77
2022/09/10 05:09:36;;;;;;;13.05;5.88;;;;;;;19.22;67.23;100461.38;6221664;23;20021;-76
2022/09/10 05:12:03;;;;;;;15.25;5.50;;;;;;;19.35;67.36;100475.28;6225291;23;20204;-76
2022/09/10 05:14:31;;;;;;;15.35;4.43;;;;;;;19.36;67.28;100473.28;6226537;23;20028;-76
2022/09/10 05:16:58;;;;;;;8.38;3.40;;;;;;;19.39;67.55;100472.59;6227550;23;20478;-77
2022/09/10 05:19:25;;;;;;;10.65;4.68;;;;;;;19.46;67.66;100475.72;6215210;23;20021;-76
2022/09/10 05:21:52;;;;;;;9.43;4.78;;;;;;;19.55;67.47;100481.31;6215959;23;20026;-76
2022/09/10 05:24:20;;;;;;;9.65;5.65;;;;;;;19.55;67.46;100486.97;6215615;23;20459;-76
2022/09/10 05:26:47;;;;;;;6.57;3.50;;;;;;;19.43;67.41;100473.56;6214997;23;20020;-76
2022/09/10 05:29:15;;;;;;;8.75;3.45;;;;;;;19.44;67.46;100480.88;6213832;23;20459;-77
2022/09/10 05:31:42;;;;;;;7.95;3.42;;;;;;;19.18;67.64;100456.41;6215259;23;20017;-77
2022/09/10 05:34:09;;;;;;;4.85;3.03;;;;;;;19.04;67.96;100444.47;6215325;23;20028;-77
2022/09/10 05:36:36;;;;;;;11.73;3.45;;;;;;;19.18;67.91;100469.72;6216171;23;20021;-76
2022/09/10 05:39:03;;;;;;;6.63;3.58;;;;;;;19.04;67.84;100461.47;6215687;23;20021;-76
2022/09/10 05:41:30;;;;;;;5.05;3.25;;;;;;;19.15;67.93;100476.88;6214550;23;20048;-76
2022/09/10 05:43:58;;;;;;;6.03;2.85;;;;;;;18.85;67.97;100447.72;6215063;23;20021;-76
2022/09/10 05:46:27;;;;;;;5.53;3.20;;;;;;;19.13;67.94;100482.03;6213412;23;20350;-76
2022/09/10 05:48:54;;;;;;;6.53;2.70;;;;;;;19.04;67.93;100469.94;6214800;23;20024;-76
2022/09/10 05:51:21;;;;;;;5.90;2.47;;;;;;;18.78;67.99;100438.09;6213754;23;20505;-76
2022/09/10 05:53:48;;;;;;;9.30;3.10;;;;;;;18.99;68.00;100472.13;6215679;23;20020;-76
2022/09/10 05:56:15;;;;;;;8.60;2.75;;;;;;;18.93;68.12;100454.50;6214128;23;20087;-76
2022/09/10 05:58:44;;;;;;;5.85;3.08;;;;;;;19.07;67.92;100486.22;6214006;23;20485;-76
2022/09/10 06:01:11;;;;;;;6.75;3.25;;;;;;;18.91;68.08;100463.34;6214636;23;20406;-76
2022/09/10 06:03:39;;;;;;;5.22;3.00;;;;;;;18.64;67.82;100416.47;6213516;23;20047;-76
2022/09/10 06:06:06;;;;;;;6.40;3.15;;;;;;;19.00;67.62;100483.09;6216149;23;20027;-76
2022/09/10 06:08:34;;;;;;;8.82;3.13;;;;;;;18.85;68.12;100476.00;6214647;23;20479;-75
2022/09/10 06:11:04;;;;;;;6.55;3.20;;;;;;;18.91;67.89;100469.00;6213961;23;20100;-75
2022/09/10 06:13:33;;;;;;;6.40;3.20;;;;;;;18.92;67.70;100458.50;6213687;23;20032;-76
2022/09/10 06:16:00;;;;;;;7.25;3.45;;;;;;;18.96;67.65;100475.63;6215179;23;20020;-76
2022/09/10 06:18:28;;;;;;;7.68;2.75;;;;;;;19.01;67.76;100483.91;6215461;23;20021;-75
2022/09/10 06:21:23;;;;;;;5.45;3.47;;;;;;;18.96;67.58;100484.94;6215711;23;20309;-76
2022/09/10 06:23:54;;;;;;;6.47;2.78;;;;;;;18.84;67.33;100456.56;6213805;23;20048;-76
2022/09/10 06:26:21;;;;;;;8.07;3.92;;;;;;;19.00;66.96;100474.59;6215280;23;20024;-76
2022/09/10 06:29:29;;;;;;;6.50;3.45;;;;;;;19.23;67.33;100497.00;6214256;23;20032;-76
2022/09/10 06:31:55;;;;;;;5.13;3.10;;;;;;;19.26;67.07;100493.50;6212859;23;20024;-76
2022/09/10 06:34:22;;;;;;;8.30;3.28;;;;;;;19.39;66.91;100512.25;6214928;23;20027;-76
2022/09/10 06:36:49;;;;;;;6.18;3.38;;;;;;;19.28;66.97;100493.97;6213842;23;20039;-76
2022/09/10 06:39:17;;;;;;;8.60;3.67;;;;;;;19.36;66.94;100491.09;6209949;23;20740;-77
2022/09/10 06:41:43;;;;;;;10.25;4.28;;;;;;;19.56;66.97;100506.47;6210265;23;20020;-81
2022/09/10 06:44:18;;;;;;;7.10;3.30;;;;;;;19.66;66.49;100502.47;6211894;23;20017;-81
2022/09/10 06:46:45;;;;;;;7.38;3.72;;;;;;;19.78;66.13;100525.19;6212632;23;20027;-81
2022/09/10 06:49:32;;;;;;;8.88;4.00;;;;;;;19.78;66.43;100518.69;6213638;23;20340;-81
2022/09/10 06:52:00;;;;;;;9.07;3.63;;;;;;;19.69;66.35;100498.09;6213652;23;20017;-79
2022/09/10 06:54:27;;;;;;;6.90;3.30;;;;;;;19.87;66.34;100516.66;6211843;23;20020;-74
2022/09/10 06:56:53;;;;;;;6.10;3.40;;;;;;;19.90;66.30;100518.78;6213661;23;20344;-76
2022/09/10 06:59:20;;;;;;;7.00;3.20;;;;;;;19.89;65.97;100497.28;6213359;23;20024;-75
2022/09/10 07:01:48;;;;;;;7.20;3.90;;;;;;;20.02;66.01;100506.69;6211220;23;20017;-77
2022/09/10 07:04:15;;;;;;;8.23;3.38;;;;;;;20.07;65.75;100503.66;6211523;23;20466;-78
2022/09/10 07:06:42;;;;;;;8.13;3.15;;;;;;;20.04;65.88;100465.50;6211700;23;20031;-80
2022/09/10 07:09:09;;;;;;;7.65;3.70;;;;;;;19.83;65.71;100442.00;6218298;23;20031;-81
2022/09/10 07:11:36;;;;;;;6.88;3.70;;;;;;;20.10;65.49;100481.13;6227034;23;20020;-83
2022/09/10 07:14:11;;;;;;;9.82;4.20;;;;;;;20.35;65.35;100503.91;6216195;23;20017;-79
2022/09/10 07:16:40;;;;;;;4.82;2.78;;;;;;;20.32;65.23;100511.09;6213342;23;20021;-79
2022/09/10 07:19:12;;;;;;;4.90;3.38;;;;;;;20.14;64.95;100478.41;6216224;23;20024;-78
2022/09/10 07:21:39;;;;;;;5.80;3.20;;;;;;;20.55;64.87;100505.09;6213120;23;20021;-80
2022/09/10 07:24:05;;;;;;;7.28;2.72;;;;;;;20.57;64.69;100477.19;6210752;23;20024;-80
2022/09/10 07:26:32;;;;;;;8.75;3.40;;;;;;;20.63;64.27;100474.97;6212181;23;20027;-79
2022/09/10 07:28:59;;;;;;;5.15;3.63;;;;;;;20.90;64.22;100485.66;6209944;23;20020;-73
2022/09/10 07:31:29;;;;;;;4.55;3.22;;;;;;;21.08;63.46;100471.25;6207621;23;20016;-74
2022/09/10 07:33:57;;;;;;;5.35;2.95;;;;;;;21.17;63.47;100491.84;6209072;23;20024;-73
2022/09/10 07:36:27;;;;;;;5.72;2.80;;;;;;;21.21;62.92;100478.59;6211228;23;20020;-73
2022/09/10 07:38:56;;;;;;;7.88;3.08;;;;;;;21.20;62.49;100471.28;6210647;23;20032;-74
2022/09/10 07:41:26;;;;;;;7.45;4.05;;;;;;;21.39;61.88;100485.72;6208705;23;20460;-79
2022/09/10 07:43:54;;;;;;;11.18;3.25;;;;;;;21.57;61.49;100491.16;6212060;23;20439;-86
2022/09/10 07:46:24;;;;;;;6.00;3.13;;;;;;;21.60;61.01;100437.28;6223234;23;20358;-81
2022/09/10 07:48:59;;;;;;;4.30;2.33;;;;;;;22.00;60.68;100477.09;6227750;23;20130;-81
2022/09/10 07:51:29;;;;;;;7.75;3.58;;;;;;;22.29;60.17;100500.75;6225952;23;20032;-84
2022/09/10 07:53:57;;;;;;;5.28;3.05;;;;;;;22.33;59.87;100473.25;6212986;23;20031;-78
2022/09/10 07:56:24;;;;;;;7.47;3.63;;;;;;;22.54;59.25;100477.88;6211511;23;20055;-77
2022/09/10 07:58:52;;;;;;;6.05;3.63;;;;;;;22.67;58.95;100476.63;6210464;23;20154;-76
2022/09/10 08:01:20;;;;;;;6.43;2.72;;;;;;;22.75;59.15;100495.56;6210959;23;20028;-76
2022/09/10 08:03:47;;;;;;;7.57;3.33;;;;;;;22.59;58.42;100446.31;6210734;23;20029;-76
2022/09/10 08:06:15;;;;;;;7.13;3.50;;;;;;;23.08;58.37;100491.59;6211507;23;20025;-76
2022/09/10 08:08:42;;;;;;;5.28;3.35;;;;;;;23.18;58.00;100485.34;6207478;23;20032;-75
2022/09/10 08:11:16;;;;;;;12.35;3.70;;;;;;;23.15;57.40;100466.97;6211307;23;20031;-86
2022/09/10 08:13:48;;;;;;;12.27;4.47;;;;;;;23.37;57.14;100505.34;6210396;23;20027;-76
2022/09/10 08:16:21;;;;;;;5.97;3.38;;;;;;;23.30;57.06;100476.69;6209770;23;20035;-75
2022/09/10 08:18:50;;;;;;;5.70;2.88;;;;;;;23.39;57.06;100483.03;6212252;23;20027;-76
2022/09/10 08:21:18;;;;;;;4.72;3.13;;;;;;;23.72;56.44;100509.47;6212921;23;20457;-76
2022/09/10 08:23:50;;;;;;;5.43;2.55;;;;;;;23.99;56.44;100502.78;6210919;23;20029;-74
2022/09/10 08:26:17;;;;;;;5.03;2.70;;;;;;;24.26;55.82;100495.22;6213641;23;20028;-74
2022/09/10 08:28:44;;;;;;;3.88;2.47;;;;;;;24.53;55.04;100490.50;6208700;23;20359;-73
2022/09/10 08:31:11;;;;;;;8.10;3.10;;;;;;;24.98;54.81;100494.63;6212041;23;20028;-73
2022/09/10 08:33:39;;;;;;;5.63;2.60;;;;;;;25.57;54.08;100503.00;6212745;23;20020;-74
2022/09/10 08:36:09;;;;;;;6.68;2.78;;;;;;;26.08;53.22;100494.00;6210424;23;20024;-78
2022/09/10 08:38:38;;;;;;;6.85;3.25;;;;;;;26.41;51.96;100465.41;6212616;23;20035;-76
2022/09/10 08:41:17;;;;;;;8.70;2.90;;;;;;;26.97;51.68;100495.09;6214400;23;20024;-80
2022/09/10 08:44:03;;;;;;;5.67;2.20;;;;;;;27.48;51.42;100502.16;6209274;23;20028;-78
2022/09/10 08:46:47;;;;;;;6.60;3.33;;;;;;;27.86;50.45;100480.72;6210196;23;20242;-79
2022/09/10 08:49:36;;;;;;;5.97;3.40;;;;;;;28.13;49.94;100480.47;6209192;23;20206;-75
2022/09/10 08:52:14;;;;;;;7.85;3.28;;;;;;;28.40;49.00;100476.13;6212806;23;20437;-76
2022/09/10 08:55:04;;;;;;;6.85;3.25;;;;;;;28.80;48.95;100491.44;6211796;23;20032;-75
2022/09/10 08:57:34;;;;;;;5.50;3.58;;;;;;;29.19;47.95;100510.81;6194896;23;20032;-74
2022/09/10 09:00:00;;;;;;;;;;;;;;;29.15;49.36;100495.63;6211125;23;20470;-75
2022/09/10 09:02:30;;;;;;;5.03;3.35;;;;;;;29.21;47.84;100502.63;6209895;23;19916;-75
2022/09/10 09:05:21;;;;;;;5.53;3.40;;;;;;;29.42;47.07;100490.31;6211291;23;20099;-74
2022/09/10 09:07:50;;;;;;;9.32;3.40;;;;;;;29.75;46.05;100472.63;6212862;23;20372;-75
2022/09/10 09:10:19;;;;;;;6.65;3.42;;;;;;;30.48;45.16;100499.19;6216012;23;20078;-75
2022/09/10 09:13:00;;;;;;;4.55;2.75;;;;;;;30.77;44.50;100463.25;6214698;23;20017;-75
2022/09/10 09:15:46;;;;;;;5.05;2.85;;;;;;;31.05;43.75;100496.00;6213844;23;20024;-75
2022/09/10 09:18:16;;;;;;;4.53;2.30;;;;;;;31.32;43.10;100517.28;6215331;23;20024;-75
2022/09/10 09:20:50;;;;;;;4.80;2.88;;;;;;;31.60;42.54;100486.53;6215630;23;20447;-75
2022/09/10 09:23:26;;;;;;;4.82;2.58;;;;;;;31.73;42.11;100516.50;6213868;23;20351;-75
2022/09/10 09:26:02;;;;;;;6.97;2.97;;;;;;;31.57;41.87;100479.53;6215030;23;20024;-75
2022/09/10 09:28:44;;;;;;;4.38;2.75;;;;;;;31.93;41.33;100501.47;6211546;23;20035;-76
2022/09/10 09:31:15;;;;;;;4.80;2.47;;;;;;;32.23;41.13;100504.44;6214348;23;20032;-76
2022/09/10 09:33:44;;;;;;;7.07;3.10;;;;;;;32.33;39.77;100491.13;6213779;23;20025;-75
2022/09/10 09:36:17;;;;;;;6.28;3.20;;;;;;;32.67;39.50;100507.66;6213793;23;20043;-76
2022/09/10 09:38:47;;;;;;;3.78;2.75;;;;;;;32.77;39.38;100493.03;6213888;23;20028;-75
2022/09/10 09:41:22;;;;;;;6.00;3.08;;;;;;;32.62;39.39;100514.75;6214801;23;20301;-75
2022/09/10 09:44:00;;;;;;;4.18;2.72;;;;;;;32.69;39.30;100503.06;6213498;23;20017;-75
2022/09/10 09:46:27;;;;;;;4.38;2.60;;;;;;;32.89;38.61;100502.38;6213297;23;20024;-75
2022/09/10 09:48:58;;;;;;;6.93;2.72;;;;;;;33.11;38.17;100500.84;6213201;23;20355;-75
2022/09/10 09:51:34;;;;;;;6.25;2.80;;;;;;;33.16;37.99;100500.31;6215043;23;20024;-76
2022/09/10 09:54:16;;;;;;;4.80;2.50;;;;;;;33.25;37.56;100491.91;6215175;23;20021;-76
2022/09/10 09:57:14;;;;;;;4.68;2.67;;;;;;;33.51;37.65;100509.75;6213777;23;20028;-75
2022/09/10 09:59:42;;;;;;;7.05;3.97;;;;;;;33.74;37.02;100497.31;6212980;23;20451;-75
2022/09/10 10:02:11;;;;;;;8.33;5.27;;;;;;;34.13;36.83;100522.69;6214870;23;20024;-75
2022/09/10 10:04:52;;;;;;;6.05;4.50;;;;;;;34.20;36.52;100495.66;6212131;23;20024;-75
2022/09/10 10:07:31;;;;;;;9.18;3.95;;;;;;;34.18;36.56;100510.56;6213477;23;20021;-75
2022/09/10 10:10:06;;;;;;;6.60;3.65;;;;;;;34.15;36.77;100507.75;6214042;23;20020;-75
2022/09/10 10:12:47;;;;;;;6.20;3.33;;;;;;;33.97;36.51;100505.16;6214595;23;20024;-75
2022/09/10 10:15:40;;;;;;;5.82;3.58;;;;;;;34.16;37.04;100513.13;6214310;23;20020;-75
2022/09/10 10:18:27;;;;;;;5.85;3.45;;;;;;;34.37;36.70;100516.84;6190763;23;20027;-75
2022/09/10 10:21:17;;;;;;;7.47;3.83;;;;;;;34.51;36.44;100507.88;6215683;23;20439;-75
2022/09/10 10:23:45;;;;;;;7.38;4.18;;;;;;;34.62;35.94;100516.34;6214572;23;20021;-75
2022/09/10 10:26:19;;;;;;;8.70;3.53;;;;;;;34.60;36.69;100502.28;6214143;23;20024;-76
2022/09/10 10:28:49;;;;;;;9.20;3.95;;;;;;;34.46;36.56;100513.34;6216323;23;20021;-75
2022/09/10 10:31:17;;;;;;;7.38;4.15;;;;;;;34.39;36.56;100508.50;6215642;23;20024;-76
2022/09/10 10:34:03;;;;;;;13.13;4.35;;;;;;;34.39;36.74;100508.50;6216052;23;20470;-75
2022/09/10 10:36:53;;;;;;;10.48;4.88;;;;;;;34.07;37.19;100498.38;6214603;23;20024;-75
2022/09/10 10:39:38;;;;;;;10.57;3.88;;;;;;;34.00;37.67;100527.50;6215593;23;20024;-74
2022/09/10 10:42:14;;;;;;;9.98;4.20;;;;;;;33.57;38.09;100507.13;6214012;23;20031;-76
2022/09/10 10:45:12;;;;;;;17.85;4.15;;;;;;;33.57;38.22;100507.94;6214152;23;20027;-76
2022/09/10 10:48:08;;;;;;;8.90;3.72;;;;;;;33.60;38.74;100509.97;6214469;23;20329;-76
2022/09/10 10:50:54;;;;;;;10.98;3.95;;;;;;;33.45;38.26;100528.81;6215539;23;20020;-75
2022/09/10 10:53:54;;;;;;;8.75;4.50;;;;;;;33.35;38.52;100503.78;6215794;23;20027;-74
2022/09/10 10:56:30;;;;;;;7.93;3.70;;;;;;;33.49;38.66;100515.13;6215552;23;20468;-75
2022/09/10 10:59:16;;;;;;;10.38;3.65;;;;;;;33.60;38.15;100517.84;6215667;23;20043;-74
2022/09/10 11:01:52;;;;;;;10.18;3.83;;;;;;;33.70;37.69;100516.84;6214179;23;20051;-74
2022/09/10 11:04:41;;;;;;;13.57;4.90;;;;;;;33.39;38.28;100516.09;6215245;23;20016;-74
2022/09/10 11:07:30;;;;;;;;;;;;;;;32.63;40.14;100516.38;6214434;23;20021;-73
2022/09/10 11:10:00;;;;;;;6.38;3.30;;;;;;;32.56;39.79;100528.03;6215172;23;19923;-74
2022/09/10 11:12:33;;;;;;;4.13;2.95;;;;;;;32.80;39.66;100503.75;6213250;23;20459;-74
2022/09/10 11:15:20;;;;;;;7.53;3.13;;;;;;;33.30;39.46;100512.94;6215333;23;20020;-75
2022/09/10 11:18:22;;;;;;;9.40;3.03;;;;;;;33.69;38.54;100513.13;6214978;23;20044;-74
2022/09/10 11:20:59;;;;;;;6.25;3.22;;;;;;;33.72;38.21;100520.94;6207745;23;20021;-74
2022/09/10 11:23:44;;;;;;;4.53;2.65;;;;;;;34.09;37.53;100507.47;6210980;23;20028;-75
2022/09/10 11:26:20;;;;;;;5.78;2.35;;;;;;;34.15;37.13;100517.25;6215160;23;20027;-75
2022/09/10 11:29:02;;;;;;;3.33;2.13;;;;;;;34.23;36.71;100522.94;6213751;23;20043;-74
2022/09/10 11:31:32;;;;;;;3.15;2.10;;;;;;;34.25;36.26;100537.78;6215103;23;20028;-74
2022/09/10 11:34:09;;;;;;;3.05;2.00;;;;;;;34.48;36.15;100499.22;6215172;23;20016;-74
2022/09/10 11:36:55;;;;;;;3.15;2.00;;;;;;;34.83;35.40;100510.06;6216315;23;20068;-75
2022/09/10 11:39:27;;;;;;;1.90;1.50;;;;;;;35.24;35.15;100502.09;6216447;23;20021;-75
2022/09/10 11:41:58;;;;;;;1.92;1.50;;;;;;;35.59;34.76;100486.72;6214708;23;20025;-75
2022/09/10 11:44:44;;;;;;;2.30;1.63;;;;;;;35.88;34.21;100497.56;6215282;23;20028;-75
2022/09/10 11:47:22;;;;;;;2.42;1.77;;;;;;;36.24;34.06;100505.28;6215497;23;20448;-75
2022/09/10 11:50:09;;;;;;;2.88;1.77;;;;;;;36.58;33.81;100510.56;6214935;23;20021;-75